Time;durP1;ratioP1;P1;durP2;ratioP2;P2;SDS_P1;SDS_P2;PMS_P1;PMS_P2;Temp;Humidity;BMP_temperature;BMP_pressure;BME280_temperature;BME280_humidity;BME280_pressure;Samples;Min_cycle;Max_cycle;Signal;HPM_P1;HPM_P2
2021/10/20 00:02:11;;;;;;;26.92;14.02;;;16.30;90.90;;;;;;5097532;28;20024;-81
2021/10/20 00:04:37;;;;;;;26.67;14.68;;;16.30;91.00;;;;;;5097527;28;20017;-81
2021/10/20 00:07:02;;;;;;;27.52;14.07;;;16.30;91.10;;;;;;5097450;28;20027;-82
2021/10/20 00:09:28;;;;;;;32.63;15.23;;;16.30;91.10;;;;;;5095584;28;20016;-82
2021/10/20 00:11:54;;;;;;;26.65;15.02;;;16.40;91.30;;;;;;5097583;28;20429;-81
2021/10/20 00:14:20;;;;;;;25.95;14.93;;;16.40;91.20;;;;;;5095866;28;20020;-82
2021/10/20 00:16:47;;;;;;;23.40;15.52;;;16.40;91.30;;;;;;5096008;28;20028;-82
2021/10/20 00:19:13;;;;;;;29.50;16.58;;;16.40;90.90;;;;;;5097091;28;20020;-82
2021/10/20 00:21:39;;;;;;;25.77;16.05;;;16.50;91.40;;;;;;5097290;28;20024;-82
2021/10/20 00:24:05;;;;;;;28.63;16.65;;;16.50;91.40;;;;;;5100449;28;20024;-81
2021/10/20 00:26:31;;;;;;;30.85;18.80;;;16.50;91.40;;;;;;5101249;28;20562;-81
2021/10/20 00:28:57;;;;;;;32.63;17.75;;;16.50;91.40;;;;;;5101137;28;20047;-81
2021/10/20 00:31:23;;;;;;;36.55;21.55;;;16.50;91.60;;;;;;5101163;28;20060;-81
2021/10/20 00:33:49;;;;;;;36.35;19.80;;;16.60;91.90;;;;;;5084317;28;20383;-83
2021/10/20 00:36:15;;;;;;;32.95;19.33;;;16.60;91.70;;;;;;5080624;28;20052;-82
2021/10/20 00:38:41;;;;;;;33.92;20.52;;;16.60;91.70;;;;;;5080485;28;20025;-81
2021/10/20 00:41:06;;;;;;;34.25;21.17;;;16.60;92.00;;;;;;5080368;28;20055;-83
2021/10/20 00:43:32;;;;;;;37.65;20.08;;;16.60;92.00;;;;;;5092206;28;20016;-81
2021/10/20 00:45:58;;;;;;;38.05;20.63;;;16.70;92.20;;;;;;5080643;28;20029;-81
2021/10/20 00:48:24;;;;;;;32.72;19.40;;;16.70;92.00;;;;;;5080305;28;20116;-82
2021/10/20 00:50:50;;;;;;;34.10;20.83;;;16.70;92.30;;;;;;5090106;28;20066;-82
2021/10/20 00:53:16;;;;;;;32.38;19.75;;;16.70;92.00;;;;;;5100631;28;20020;-81
2021/10/20 00:55:42;;;;;;;33.83;20.60;;;16.80;91.90;;;;;;5100480;28;20089;-81
2021/10/20 00:58:08;;;;;;;31.52;19.27;;;16.80;92.00;;;;;;5100478;28;20074;-82
2021/10/20 01:00:34;;;;;;;32.03;20.55;;;16.90;92.40;;;;;;5100674;28;20024;-82
2021/10/20 01:03:01;;;;;;;34.08;20.05;;;16.90;92.10;;;;;;5100370;28;20023;-82
2021/10/20 01:05:27;;;;;;;32.35;19.90;;;16.90;92.00;;;;;;5100637;28;20086;-82
2021/10/20 01:07:53;;;;;;;35.20;21.48;;;16.90;91.70;;;;;;5100359;28;20012;-83
2021/10/20 01:10:19;;;;;;;34.30;19.88;;;16.90;92.30;;;;;;5100188;28;20386;-81
2021/10/20 01:12:45;;;;;;;32.28;19.13;;;16.90;92.10;;;;;;5100208;28;20053;-81
2021/10/20 01:15:19;;;;;;;28.23;19.00;;;16.90;92.20;;;;;;5098998;28;20028;-81
2021/10/20 01:17:47;;;;;;;35.38;20.20;;;17.00;92.10;;;;;;5100139;28;20046;-81
2021/10/20 01:20:13;;;;;;;32.17;20.10;;;17.00;92.10;;;;;;5100145;28;20024;-82
2021/10/20 01:22:39;;;;;;;29.25;19.05;;;17.00;92.20;;;;;;5098645;28;20119;-81
2021/10/20 01:25:06;;;;;;;34.92;19.30;;;17.00;92.00;;;;;;5098496;28;20020;-81
2021/10/20 01:27:32;;;;;;;31.08;18.15;;;17.00;92.10;;;;;;5098601;28;20024;-82
2021/10/20 01:29:59;;;;;;;33.40;18.10;;;17.00;92.00;;;;;;5100036;28;20082;-81
2021/10/20 01:32:27;;;;;;;33.90;17.75;;;17.00;92.20;;;;;;5093257;28;20028;-81
2021/10/20 01:34:55;;;;;;;26.50;16.27;;;17.00;92.10;;;;;;5078970;28;20051;-81
2021/10/20 01:37:23;;;;;;;31.25;16.67;;;17.00;91.80;;;;;;5079430;28;20052;-82
2021/10/20 01:39:49;;;;;;;27.52;16.83;;;17.00;91.50;;;;;;5079151;28;20028;-81
2021/10/20 01:42:15;;;;;;;26.95;17.00;;;17.00;91.40;;;;;;5083354;28;20028;-82
2021/10/20 01:44:41;;;;;;;29.08;16.42;;;17.00;91.50;;;;;;5085403;28;20025;-82
2021/10/20 01:47:07;;;;;;;27.40;16.27;;;17.00;91.60;;;;;;5077905;28;20024;-81
2021/10/20 01:49:33;;;;;;;31.10;17.52;;;17.00;91.70;;;;;;5078771;28;20476;-81
2021/10/20 01:51:59;;;;;;;28.90;15.38;;;17.00;91.70;;;;;;5079195;28;20016;-81
2021/10/20 01:54:24;;;;;;;26.30;15.50;;;17.00;91.60;;;;;;5077615;28;20056;-81
2021/10/20 01:56:50;;;;;;;26.45;14.90;;;17.10;91.80;;;;;;5079388;28;20448;-81
2021/10/20 01:59:16;;;;;;;24.48;15.70;;;17.10;91.50;;;;;;5079165;28;20024;-81
2021/10/20 02:01:43;;;;;;;29.88;15.13;;;17.10;91.70;;;;;;5078951;28;20056;-81
2021/10/20 02:04:13;;;;;;;23.75;14.23;;;17.10;91.80;;;;;;5091038;28;20589;-82
2021/10/20 02:06:43;;;;;;;28.10;15.45;;;17.20;92.00;;;;;;5080025;28;20471;-82
2021/10/20 02:09:10;;;;;;;29.88;15.60;;;17.20;91.70;;;;;;5078920;28;20542;-83
2021/10/20 02:11:38;;;;;;;25.10;14.90;;;17.10;91.80;;;;;;5077687;28;20032;-83
2021/10/20 02:14:09;;;;;;;30.83;16.70;;;17.10;92.10;;;;;;5078697;28;20028;-83
2021/10/20 02:16:35;;;;;;;27.83;16.02;;;17.10;92.30;;;;;;5079003;28;20110;-85
2021/10/20 02:19:01;;;;;;;24.23;14.30;;;17.10;92.40;;;;;;5077646;28;20029;-83
2021/10/20 02:21:27;;;;;;;23.98;14.05;;;17.20;92.30;;;;;;5078746;28;20024;-84
2021/10/20 02:23:56;;;;;;;23.70;13.73;;;17.20;91.80;;;;;;5078368;28;20028;-84
2021/10/20 02:26:22;;;;;;;24.95;14.60;;;17.10;91.80;;;;;;5078864;28;20025;-84
2021/10/20 02:28:48;;;;;;;23.00;13.65;;;17.20;91.90;;;;;;5077126;28;20021;-84
2021/10/20 02:31:14;;;;;;;26.35;13.63;;;17.20;92.30;;;;;;5078679;28;20024;-84
2021/10/20 02:33:55;;;;;;;23.05;13.80;;;17.20;92.00;;;;;;5079938;28;20104;-86
2021/10/20 02:36:30;;;;;;;25.23;13.77;;;17.20;92.20;;;;;;5077501;28;20044;-86
2021/10/20 02:39:13;;;;;;;24.75;13.68;;;17.20;92.80;;;;;;5076547;28;20032;-86
2021/10/20 02:45:42;;;;;;;26.10;13.43;;;17.30;92.40;;;;;;5067991;28;20095;-86
2021/10/20 02:48:46;;;;;;;;;;;;;;;;;;;;;
2021/10/20 02:51:12;;;;;;;24.98;13.65;;;17.20;91.90;;;;;;5077586;28;20036;-86
2021/10/20 02:53:43;;;;;;;24.73;12.18;;;17.20;92.20;;;;;;5076779;28;20031;-85
2021/10/20 02:56:18;;;;;;;23.00;12.02;;;17.20;91.50;;;;;;5076783;28;20112;-85
2021/10/20 02:58:44;;;;;;;22.00;12.13;;;17.20;91.60;;;;;;5084477;28;20229;-84
2021/10/20 03:01:10;;;;;;;18.60;11.18;;;17.10;91.70;;;;;;5096802;28;20398;-85
2021/10/20 03:03:36;;;;;;;19.17;11.10;;;17.10;91.70;;;;;;5096926;28;20024;-83
2021/10/20 03:06:02;;;;;;;21.30;11.07;;;17.20;91.60;;;;;;5098494;28;20050;-83
2021/10/20 03:08:28;;;;;;;17.88;11.25;;;17.10;91.30;;;;;;5096876;28;20035;-83
2021/10/20 03:10:54;;;;;;;19.58;11.60;;;17.10;91.40;;;;;;5096325;28;20024;-84
2021/10/20 03:13:20;;;;;;;21.30;11.18;;;17.10;91.50;;;;;;5096709;28;20043;-84
2021/10/20 03:15:45;;;;;;;19.33;10.88;;;17.10;91.50;;;;;;5098239;28;20016;-83
2021/10/20 03:18:11;;;;;;;21.25;12.23;;;17.10;91.30;;;;;;5098065;28;20375;-83
2021/10/20 03:20:37;;;;;;;20.10;12.18;;;17.00;91.70;;;;;;5084165;28;20060;-84
2021/10/20 03:23:03;;;;;;;25.33;12.57;;;17.00;91.40;;;;;;5076596;28;20024;-83
2021/10/20 03:25:29;;;;;;;23.83;12.88;;;17.00;91.60;;;;;;5077287;28;20433;-83
2021/10/20 03:27:55;;;;;;;25.73;14.20;;;17.10;91.90;;;;;;5084788;28;20051;-84
2021/10/20 03:30:22;;;;;;;22.65;13.52;;;17.00;91.70;;;;;;5083825;28;20021;-83
2021/10/20 03:32:48;;;;;;;28.88;13.55;;;17.00;91.90;;;;;;5079671;28;20078;-83
2021/10/20 03:35:16;;;;;;;25.33;13.10;;;17.00;92.00;;;;;;5077476;28;20029;-82
2021/10/20 03:37:42;;;;;;;26.48;13.32;;;17.00;92.20;;;;;;5077729;28;20055;-82
2021/10/20 03:40:09;;;;;;;26.27;14.23;;;17.00;92.10;;;;;;5076991;28;20032;-82
2021/10/20 03:42:35;;;;;;;24.77;13.48;;;17.00;92.40;;;;;;5084372;28;20024;-83
2021/10/20 03:45:03;;;;;;;27.23;13.50;;;17.00;92.60;;;;;;5082491;28;20541;-83
2021/10/20 03:47:29;;;;;;;26.67;13.88;;;17.00;92.60;;;;;;5077885;28;20403;-84
2021/10/20 03:49:55;;;;;;;24.92;14.52;;;17.00;92.50;;;;;;5079104;28;20025;-84
2021/10/20 03:52:21;;;;;;;25.70;13.60;;;17.00;92.70;;;;;;5088197;28;20036;-84
2021/10/20 03:54:47;;;;;;;28.30;15.63;;;17.00;92.70;;;;;;5076791;28;20021;-85
2021/10/20 03:57:13;;;;;;;26.15;14.77;;;17.00;92.90;;;;;;5079295;28;20081;-86
2021/10/20 03:59:42;;;;;;;27.90;12.90;;;16.90;92.90;;;;;;5083683;28;20103;-85
2021/10/20 04:02:08;;;;;;;30.33;13.10;;;16.80;92.50;;;;;;5083004;28;20035;-86
2021/10/20 04:04:34;;;;;;;22.83;12.52;;;16.80;92.50;;;;;;5086536;28;20017;-87
2021/10/20 04:07:00;;;;;;;26.05;12.80;;;16.70;92.40;;;;;;5094155;28;20468;-88
2021/10/20 04:09:26;;;;;;;22.10;11.70;;;16.70;92.40;;;;;;5083369;28;20027;-86
2021/10/20 04:11:52;;;;;;;21.83;10.50;;;16.70;92.30;;;;;;5082444;28;20032;-85
2021/10/20 04:14:18;;;;;;;23.30;11.45;;;16.70;92.20;;;;;;5083658;28;20021;-84
2021/10/20 04:16:43;;;;;;;20.90;11.13;;;16.60;91.90;;;;;;5083916;28;20425;-84
2021/10/20 04:19:09;;;;;;;19.45;10.75;;;16.60;92.00;;;;;;5083562;28;20055;-84
2021/10/20 04:21:35;;;;;;;20.67;9.77;;;16.60;91.90;;;;;;5083991;28;20024;-84
2021/10/20 04:24:01;;;;;;;20.08;10.55;;;16.60;91.70;;;;;;5096728;28;20136;-85
2021/10/20 04:26:27;;;;;;;19.60;11.18;;;16.60;92.00;;;;;;5083925;28;20021;-83
2021/10/20 04:28:53;;;;;;;24.50;10.60;;;16.60;92.10;;;;;;5083480;28;20024;-83
2021/10/20 04:31:19;;;;;;;22.67;10.63;;;16.60;92.00;;;;;;5083749;28;20030;-83
2021/10/20 04:33:44;;;;;;;20.95;10.82;;;16.60;92.00;;;;;;5085138;28;20024;-84
2021/10/20 04:36:10;;;;;;;23.95;11.50;;;16.60;92.00;;;;;;5092572;28;20502;-84
2021/10/20 04:38:36;;;;;;;22.63;11.57;;;16.60;91.90;;;;;;5086503;28;20024;-86
2021/10/20 04:41:03;;;;;;;24.48;11.57;;;16.70;92.10;;;;;;5083348;28;20046;-83
2021/10/20 04:43:32;;;;;;;24.58;11.80;;;16.70;92.40;;;;;;5094818;28;20043;-84
2021/10/20 04:45:57;;;;;;;25.85;12.10;;;16.60;92.10;;;;;;5082278;28;20059;-84
2021/10/20 04:48:24;;;;;;;21.85;11.10;;;16.70;92.90;;;;;;5082185;28;20052;-81
2021/10/20 04:50:50;;;;;;;23.98;11.30;;;16.70;92.70;;;;;;5093234;28;20494;-85
2021/10/20 04:53:16;;;;;;;21.08;10.13;;;16.70;92.90;;;;;;5103632;28;20031;-80
2021/10/20 04:55:45;;;;;;;23.35;11.35;;;16.80;92.70;;;;;;5103516;28;20031;-85
2021/10/20 04:58:11;;;;;;;22.05;10.32;;;16.80;92.90;;;;;;5102128;28;20400;-79
2021/10/20 05:00:37;;;;;;;24.90;11.80;;;16.80;93.00;;;;;;5103632;28;20107;-79
2021/10/20 05:03:03;;;;;;;26.13;10.82;;;16.80;93.40;;;;;;5103586;28;20024;-79
2021/10/20 05:05:30;;;;;;;24.10;10.55;;;16.80;93.40;;;;;;5103689;28;20024;-79
2021/10/20 05:08:00;;;;;;;27.75;11.38;;;16.80;93.30;;;;;;5103585;28;20052;-77
2021/10/20 05:10:27;;;;;;;19.63;10.07;;;16.80;93.40;;;;;;5098978;28;20024;-85
2021/10/20 05:12:54;;;;;;;24.40;9.18;;;16.80;93.50;;;;;;5100210;28;20054;-82
2021/10/20 05:15:20;;;;;;;18.73;9.32;;;16.80;93.40;;;;;;5100588;28;20027;-77
2021/10/20 05:17:47;;;;;;;22.73;9.60;;;16.80;93.20;;;;;;5100461;28;20107;-77
2021/10/20 05:20:14;;;;;;;17.30;7.30;;;16.80;93.30;;;;;;5100010;28;20359;-78
2021/10/20 05:22:44;;;;;;;21.55;9.10;;;16.90;93.30;;;;;;5100064;28;20087;-78
2021/10/20 05:25:13;;;;;;;20.25;8.55;;;16.90;93.30;;;;;;5099503;28;20463;-82
2021/10/20 05:27:39;;;;;;;18.50;7.00;;;16.90;93.60;;;;;;5099796;28;20023;-78
2021/10/20 05:30:06;;;;;;;16.65;7.07;;;16.90;93.60;;;;;;5100094;28;20031;-77
2021/10/20 05:32:32;;;;;;;14.70;6.38;;;16.90;93.70;;;;;;5094295;28;20411;-77
2021/10/20 05:35:01;;;;;;;15.73;6.35;;;16.90;93.60;;;;;;5079701;28;20028;-87
2021/10/20 05:37:27;;;;;;;15.85;6.28;;;16.90;93.50;;;;;;5077933;28;20048;-81
2021/10/20 05:39:53;;;;;;;15.80;6.10;;;16.90;93.30;;;;;;5077924;28;20035;-85
2021/10/20 05:42:20;;;;;;;17.30;5.72;;;16.90;93.10;;;;;;5083986;28;20023;-84
2021/10/20 05:44:47;;;;;;;19.95;6.25;;;17.00;93.40;;;;;;5086698;28;20048;-85
2021/10/20 05:47:13;;;;;;;17.42;6.38;;;17.00;93.30;;;;;;5085396;28;20031;-85
2021/10/20 05:49:39;;;;;;;16.35;5.40;;;17.00;93.40;;;;;;5086450;28;20434;-86
2021/10/20 05:52:06;;;;;;;15.60;5.40;;;17.00;93.10;;;;;;5078122;28;20048;-86
2021/10/20 05:54:32;;;;;;;15.73;4.80;;;17.00;93.20;;;;;;5077756;28;20054;-87
2021/10/20 05:56:58;;;;;;;12.48;4.93;;;17.10;93.30;;;;;;5079425;28;20449;-77
2021/10/20 05:59:24;;;;;;;11.85;4.55;;;17.10;93.50;;;;;;5079429;28;20032;-79
2021/10/20 06:01:51;;;;;;;15.45;4.55;;;17.10;93.40;;;;;;5079208;28;20070;-79
2021/10/20 06:04:17;;;;;;;15.07;4.10;;;17.10;93.20;;;;;;5079054;28;20020;-78
2021/10/20 06:06:44;;;;;;;12.32;4.25;;;17.10;93.00;;;;;;5077827;28;20373;-79
2021/10/20 06:09:11;;;;;;;13.98;4.80;;;17.20;92.90;;;;;;5078583;28;20033;-78
2021/10/20 06:11:37;;;;;;;14.30;4.10;;;17.10;93.00;;;;;;5079170;28;20017;-78
2021/10/20 06:14:03;;;;;;;18.15;3.63;;;17.10;92.70;;;;;;5077732;28;20036;-78
2021/10/20 06:16:31;;;;;;;14.27;3.88;;;17.10;92.80;;;;;;5079060;28;20491;-77
2021/10/20 06:18:57;;;;;;;13.55;4.05;;;17.20;93.00;;;;;;5078950;28;20380;-78
2021/10/20 06:21:23;;;;;;;19.13;3.63;;;17.10;92.50;;;;;;5078458;28;20030;-78
2021/10/20 06:23:48;;;;;;;12.70;3.83;;;17.10;92.40;;;;;;5078199;28;20024;-78
2021/10/20 06:26:14;;;;;;;15.63;5.18;;;17.10;92.30;;;;;;5078853;28;20020;-78
2021/10/20 06:28:40;;;;;;;15.25;4.43;;;17.10;92.20;;;;;;5078540;28;20028;-77
2021/10/20 06:31:06;;;;;;;13.48;5.18;;;17.10;92.00;;;;;;5078705;28;20425;-78
2021/10/20 06:33:32;;;;;;;18.42;4.07;;;17.10;92.00;;;;;;5079912;28;20032;-77
2021/10/20 06:36:00;;;;;;;19.80;4.90;;;17.10;92.20;;;;;;5078546;28;20040;-78
2021/10/20 06:38:26;;;;;;;18.30;4.25;;;17.00;92.30;;;;;;5078411;28;20029;-78
2021/10/20 06:40:51;;;;;;;14.35;3.92;;;17.00;92.40;;;;;;5078031;28;20035;-78
2021/10/20 06:43:17;;;;;;;11.50;3.92;;;17.00;92.20;;;;;;5088878;28;20024;-78
2021/10/20 06:45:43;;;;;;;17.83;5.22;;;17.00;92.30;;;;;;5078171;28;20020;-79
2021/10/20 06:48:09;;;;;;;10.35;3.85;;;16.90;92.50;;;;;;5078164;28;20012;-79
2021/10/20 06:50:35;;;;;;;11.73;4.40;;;16.90;92.30;;;;;;5085814;28;20020;-79
2021/10/20 06:53:01;;;;;;;18.92;4.28;;;16.90;91.90;;;;;;5097032;28;20479;-79
2021/10/20 06:55:27;;;;;;;15.60;4.20;;;16.90;91.80;;;;;;5098118;28;20423;-79
2021/10/20 06:57:53;;;;;;;15.40;3.72;;;16.90;91.90;;;;;;5098667;28;20020;-78
2021/10/20 07:00:20;;;;;;;15.25;4.03;;;16.90;92.30;;;;;;5098263;28;20111;-79
2021/10/20 07:02:46;;;;;;;17.30;3.70;;;16.90;92.20;;;;;;5098222;28;20043;-78
2021/10/20 07:05:12;;;;;;;17.98;5.13;;;16.90;92.50;;;;;;5098249;28;20052;-78
2021/10/20 07:07:38;;;;;;;12.25;4.20;;;16.90;92.30;;;;;;5098207;28;20012;-78
2021/10/20 07:10:05;;;;;;;14.90;5.25;;;16.90;92.60;;;;;;5097862;28;20380;-79
2021/10/20 07:12:34;;;;;;;15.82;5.30;;;17.00;92.60;;;;;;5097953;28;20027;-78
2021/10/20 07:15:00;;;;;;;13.05;4.22;;;17.00;92.50;;;;;;5098103;28;20027;-78
2021/10/20 07:17:26;;;;;;;20.63;4.18;;;17.00;92.40;;;;;;5098018;28;20079;-78
2021/10/20 07:19:51;;;;;;;19.35;4.57;;;17.00;92.30;;;;;;5097990;28;20031;-78
2021/10/20 07:22:17;;;;;;;18.08;4.70;;;17.10;92.40;;;;;;5097937;28;20028;-78
2021/10/20 07:24:43;;;;;;;18.70;4.18;;;17.10;92.50;;;;;;5097568;28;20073;-78
2021/10/20 07:27:09;;;;;;;16.60;4.57;;;17.10;92.30;;;;;;5096526;28;20031;-79
2021/10/20 07:29:35;;;;;;;17.02;4.10;;;17.10;92.10;;;;;;5096598;28;20028;-78
2021/10/20 07:32:02;;;;;;;19.45;4.95;;;17.20;92.20;;;;;;5093275;28;20024;-78
2021/10/20 07:34:27;;;;;;;23.40;5.28;;;17.30;92.30;;;;;;5077716;28;20084;-79
2021/10/20 07:36:55;;;;;;;20.80;4.18;;;17.40;92.00;;;;;;5077487;28;20541;-77
2021/10/20 07:39:21;;;;;;;16.98;4.10;;;17.50;91.80;;;;;;5077175;28;20082;-78
2021/10/20 07:41:48;;;;;;;15.32;4.45;;;17.60;91.70;;;;;;5077555;28;20048;-79
2021/10/20 07:44:15;;;;;;;15.88;4.75;;;17.70;91.40;;;;;;5088418;28;20020;-79
2021/10/20 07:46:41;;;;;;;20.60;4.05;;;17.70;91.10;;;;;;5077440;28;20490;-78
2021/10/20 07:49:07;;;;;;;16.90;3.78;;;17.80;90.90;;;;;;5077402;28;20379;-79
2021/10/20 07:51:33;;;;;;;22.42;5.47;;;17.90;90.80;;;;;;5092606;28;20068;-79
2021/10/20 07:53:59;;;;;;;18.70;4.03;;;17.90;90.70;;;;;;5097285;28;20088;-80
2021/10/20 07:56:32;;;;;;;23.05;4.45;;;17.90;90.50;;;;;;5097380;28;20036;-80
2021/10/20 07:58:59;;;;;;;21.98;4.20;;;18.00;90.30;;;;;;5097678;28;20111;-79
2021/10/20 08:01:24;;;;;;;21.90;4.07;;;18.00;90.20;;;;;;5095924;28;20024;-79
2021/10/20 08:03:50;;;;;;;19.50;4.15;;;17.90;90.00;;;;;;5097650;28;20070;-80
2021/10/20 08:06:17;;;;;;;21.52;4.32;;;17.90;90.00;;;;;;5097273;28;20017;-79
2021/10/20 08:08:42;;;;;;;16.55;3.67;;;17.90;90.00;;;;;;5097120;28;20028;-79
2021/10/20 08:11:08;;;;;;;17.65;4.63;;;17.90;89.70;;;;;;5097257;28;20096;-78
2021/10/20 08:13:34;;;;;;;23.00;4.30;;;17.90;89.40;;;;;;5097576;28;20046;-78
2021/10/20 08:16:00;;;;;;;20.00;4.05;;;17.90;89.10;;;;;;5097389;28;20028;-78
2021/10/20 08:18:26;;;;;;;23.48;4.20;;;17.90;89.10;;;;;;5097381;28;20024;-79
2021/10/20 08:20:52;;;;;;;16.15;3.90;;;17.80;89.00;;;;;;5097210;28;20028;-80
2021/10/20 08:23:18;;;;;;;22.83;4.95;;;17.80;89.70;;;;;;5095886;28;20024;-79
2021/10/20 08:25:43;;;;;;;15.52;3.95;;;17.90;89.00;;;;;;5096803;28;20086;-79
2021/10/20 08:28:09;;;;;;;22.70;5.03;;;17.90;89.20;;;;;;5097491;28;20025;-78
2021/10/20 08:30:35;;;;;;;16.05;4.63;;;18.00;89.10;;;;;;5097068;28;20028;-78
2021/10/20 08:33:03;;;;;;;19.70;5.80;;;18.10;89.10;;;;;;5087633;28;20051;-78
2021/10/20 08:35:30;;;;;;;15.55;3.97;;;18.20;89.00;;;;;;5076767;28;20085;-80
2021/10/20 08:38:00;;;;;;;18.30;4.47;;;18.30;88.50;;;;;;5076787;28;20045;-79
2021/10/20 08:40:30;;;;;;;20.50;4.32;;;18.40;88.20;;;;;;5076565;28;20021;-80
2021/10/20 08:42:57;;;;;;;20.73;4.22;;;18.60;87.90;;;;;;5086783;28;20474;-79
2021/10/20 08:45:24;;;;;;;20.40;4.00;;;18.70;87.60;;;;;;5083214;28;20023;-79
2021/10/20 08:47:50;;;;;;;15.32;3.67;;;18.80;86.80;;;;;;5080603;28;20103;-78
2021/10/20 08:50:32;;;;;;;13.88;3.35;;;18.90;86.20;;;;;;5085139;28;20024;-79
2021/10/20 08:52:58;;;;;;;13.65;3.53;;;18.90;86.10;;;;;;5100846;28;20028;-78
2021/10/20 08:55:25;;;;;;;22.30;5.20;;;19.00;85.60;;;;;;5100517;28;20107;-80
2021/10/20 08:57:52;;;;;;;15.18;3.22;;;19.10;84.90;;;;;;5100672;28;20028;-80
2021/10/20 09:00:20;;;;;;;20.52;4.95;;;19.10;85.10;;;;;;5100654;28;20020;-80
2021/10/20 09:02:47;;;;;;;13.05;4.03;;;19.10;84.10;;;;;;5100652;28;20023;-79
2021/10/20 09:05:18;;;;;;;19.35;4.25;;;19.20;84.20;;;;;;5100810;28;20109;-81
2021/10/20 09:07:46;;;;;;;21.02;4.40;;;19.20;83.20;;;;;;5100431;28;20146;-81
2021/10/20 09:10:13;;;;;;;17.50;3.92;;;19.20;83.00;;;;;;5100268;28;20036;-80
2021/10/20 09:12:40;;;;;;;17.38;4.03;;;19.10;83.50;;;;;;5098981;28;20024;-80
2021/10/20 09:15:18;;;;;;;30.23;5.50;;;19.20;84.50;;;;;;5100687;28;20024;-80
2021/10/20 09:17:50;;;;;;;14.65;3.60;;;19.50;84.80;;;;;;5100278;28;20427;-80
2021/10/20 09:20:17;;;;;;;17.20;3.78;;;19.90;82.90;;;;;;5100254;28;20454;-80
2021/10/20 09:22:56;;;;;;;24.10;4.68;;;20.10;80.80;;;;;;5100056;28;20100;-80
2021/10/20 09:25:31;;;;;;;17.60;4.45;;;20.20;79.80;;;;;;5099790;28;20016;-81
2021/10/20 09:27:57;;;;;;;16.00;4.38;;;20.10;80.40;;;;;;5100393;28;20020;-80
2021/10/20 09:30:23;;;;;;;22.17;3.90;;;20.00;80.70;;;;;;5099958;28;20032;-80
2021/10/20 09:32:53;;;;;;;17.83;4.05;;;20.00;79.60;;;;;;5090461;28;20107;-80
2021/10/20 09:35:20;;;;;;;20.50;3.83;;;19.90;79.60;;;;;;5079675;28;20059;-80
2021/10/20 09:37:46;;;;;;;18.08;4.55;;;19.80;79.80;;;;;;5079593;28;20560;-77
2021/10/20 09:40:14;;;;;;;22.10;4.03;;;19.70;78.30;;;;;;5077823;28;20028;-79
2021/10/20 09:42:44;;;;;;;29.08;4.32;;;19.60;79.50;;;;;;5087169;28;20021;-77
2021/10/20 09:45:12;;;;;;;25.10;5.03;;;19.50;80.10;;;;;;5083036;28;20028;-79
2021/10/20 09:47:38;;;;;;;21.52;4.85;;;19.50;79.90;;;;;;5079816;28;20021;-78
2021/10/20 09:50:06;;;;;;;23.80;4.85;;;19.40;79.80;;;;;;5082252;28;20085;-79
2021/10/20 09:52:47;;;;;;;19.75;5.65;;;19.50;79.90;;;;;;5100266;28;20020;-79
2021/10/20 09:55:34;;;;;;;21.48;3.67;;;19.50;80.10;;;;;;5098489;28;20024;-78
2021/10/20 09:58:20;;;;;;;19.05;4.03;;;19.50;80.50;;;;;;5099165;28;20034;-78
2021/10/20 10:00:46;;;;;;;20.70;5.15;;;19.50;79.80;;;;;;5099576;28;20103;-80
2021/10/20 10:03:12;;;;;;;15.52;4.07;;;19.50;80.10;;;;;;5097992;28;20092;-79
2021/10/20 10:05:38;;;;;;;25.90;4.88;;;19.50;80.00;;;;;;5099603;28;20028;-78
2021/10/20 10:08:05;;;;;;;20.13;3.22;;;19.50;78.60;;;;;;5099558;28;20069;-79
2021/10/20 10:10:31;;;;;;;20.83;3.83;;;19.50;78.60;;;;;;5098991;28;20084;-80
2021/10/20 10:13:13;;;;;;;25.08;3.60;;;19.50;78.70;;;;;;5099107;28;20027;-79
2021/10/20 10:15:41;;;;;;;20.97;4.30;;;19.50;77.90;;;;;;5099525;28;20020;-78
2021/10/20 10:18:10;;;;;;;20.30;3.97;;;19.50;77.40;;;;;;5099189;28;20028;-79
2021/10/20 10:20:44;;;;;;;18.60;3.25;;;19.50;76.80;;;;;;5097669;28;20028;-79
2021/10/20 10:23:30;;;;;;;18.40;3.50;;;19.50;77.20;;;;;;5097707;28;20024;-78
2021/10/20 10:25:59;;;;;;;20.77;3.50;;;19.40;77.00;;;;;;5098780;28;20023;-78
2021/10/20 10:28:28;;;;;;;19.20;4.30;;;19.40;76.50;;;;;;5099004;28;20091;-79
2021/10/20 10:31:05;;;;;;;27.13;5.07;;;19.40;76.90;;;;;;5098969;28;20069;-79
2021/10/20 10:33:33;;;;;;;24.48;4.00;;;19.30;77.60;;;;;;5085540;28;20024;-78
2021/10/20 10:36:18;;;;;;;19.40;3.78;;;19.30;76.90;;;;;;5083782;28;20066;-79
2021/10/20 10:38:47;;;;;;;18.88;3.83;;;19.30;77.30;;;;;;5098263;28;21426;-79
2021/10/20 10:41:18;;;;;;;24.35;5.25;;;19.30;77.40;;;;;;5098912;28;20035;-79
2021/10/20 10:44:23;;;;;;;23.65;4.40;;;19.30;77.20;;;;;;5094681;28;20028;-78
2021/10/20 10:47:04;;;;;;;26.10;4.45;;;19.20;77.80;;;;;;5052265;28;20018;-78
2021/10/20 10:49:37;;;;;;;16.33;3.83;;;19.20;77.90;;;;;;5076835;28;20029;-79
2021/10/20 10:52:20;;;;;;;20.63;4.63;;;19.20;77.70;;;;;;5097760;28;20058;-78
2021/10/20 10:54:53;;;;;;;22.58;4.15;;;19.10;78.00;;;;;;5097978;28;20035;-79
2021/10/20 10:57:19;;;;;;;19.73;3.58;;;19.10;78.40;;;;;;5098774;28;20024;-79
2021/10/20 11:00:03;;;;;;;19.45;3.97;;;19.10;78.20;;;;;;5098239;28;20387;-78
2021/10/20 11:02:39;;;;;;;22.83;4.97;;;19.10;78.20;;;;;;5098452;28;20028;-78
2021/10/20 11:05:09;;;;;;;19.58;4.25;;;19.10;78.40;;;;;;5098118;28;20024;-78
2021/10/20 11:07:35;;;;;;;21.33;4.00;;;19.10;78.30;;;;;;5097269;28;20024;-79
2021/10/20 11:10:03;;;;;;;19.10;4.03;;;19.20;78.30;;;;;;5096450;28;20020;-79
2021/10/20 11:12:29;;;;;;;25.00;4.97;;;19.20;78.20;;;;;;5098093;28;20451;-79
2021/10/20 11:14:57;;;;;;;22.45;3.95;;;19.10;77.50;;;;;;5098182;28;20088;-78
2021/10/20 11:17:23;;;;;;;23.63;4.15;;;19.20;77.50;;;;;;5097967;28;20474;-78
2021/10/20 11:19:50;;;;;;;21.60;3.88;;;19.20;77.50;;;;;;5098359;28;20028;-78
2021/10/20 11:22:21;;;;;;;26.08;3.83;;;19.10;77.60;;;;;;5097838;28;20551;-78
2021/10/20 11:24:49;;;;;;;23.17;4.57;;;19.10;77.70;;;;;;5097978;28;20604;-78
2021/10/20 11:27:16;;;;;;;30.73;4.32;;;19.20;78.60;;;;;;5097845;28;20157;-76
2021/10/20 11:29:46;;;;;;;20.38;3.70;;;19.10;77.70;;;;;;5098051;28;20028;-78
2021/10/20 11:32:14;;;;;;;23.55;4.45;;;19.20;77.70;;;;;;5095108;28;20382;-77
2021/10/20 11:34:42;;;;;;;22.88;4.00;;;19.20;77.60;;;;;;5077958;28;20426;-78
2021/10/20 11:37:10;;;;;;;17.85;4.70;;;19.20;77.70;;;;;;5077352;28;20080;-78
2021/10/20 11:39:36;;;;;;;23.80;4.75;;;19.20;78.20;;;;;;5077198;28;20051;-80
2021/10/20 11:42:05;;;;;;;22.80;4.65;;;19.20;78.00;;;;;;5079441;28;20434;-80
2021/10/20 11:44:39;;;;;;;17.65;3.88;;;19.20;78.30;;;;;;5087600;28;20073;-79
2021/10/20 11:47:10;;;;;;;21.83;4.00;;;19.20;78.40;;;;;;5077546;28;20097;-79
2021/10/20 11:49:42;;;;;;;21.17;3.42;;;19.30;77.90;;;;;;5077515;28;20024;-78
2021/10/20 11:52:11;;;;;;;;;;;19.30;77.00;;;;;;5084826;28;20107;-79
2021/10/20 11:54:38;;;;;;;33.53;5.07;;;19.30;76.80;;;;;;5097321;28;19911;-78
2021/10/20 11:57:07;;;;;;;26.70;3.50;;;19.30;77.10;;;;;;5097726;28;20107;-79
2021/10/20 11:59:34;;;;;;;23.88;3.60;;;19.30;76.90;;;;;;5097490;28;20416;-79
2021/10/20 12:02:01;;;;;;;22.70;4.60;;;19.30;76.90;;;;;;5097711;28;20024;-79
2021/10/20 12:04:27;;;;;;;18.58;3.25;;;19.30;77.10;;;;;;5097349;28;20018;-79
2021/10/20 12:06:57;;;;;;;17.92;4.15;;;19.40;77.10;;;;;;5097755;28;20051;-78
2021/10/20 12:09:26;;;;;;;25.67;5.05;;;19.30;76.80;;;;;;5096988;28;20012;-78
2021/10/20 12:11:53;;;;;;;22.65;4.95;;;19.40;76.80;;;;;;5097707;28;20028;-79
2021/10/20 12:14:22;;;;;;;22.90;3.65;;;19.40;76.50;;;;;;5097419;28;20031;-79
2021/10/20 12:16:49;;;;;;;22.40;3.13;;;19.30;77.00;;;;;;5097518;28;20027;-80
2021/10/20 12:19:21;;;;;;;22.35;4.65;;;19.30;77.90;;;;;;5099892;28;20024;-80
2021/10/20 12:21:47;;;;;;;17.67;3.90;;;19.30;77.10;;;;;;5101654;28;20028;-78
2021/10/20 12:24:17;;;;;;;20.20;4.32;;;19.40;76.60;;;;;;5100790;28;20017;-79
2021/10/20 12:26:44;;;;;;;29.75;5.00;;;19.40;77.00;;;;;;5100081;28;20028;-80
2021/10/20 12:29:11;;;;;;;22.33;3.75;;;19.40;77.10;;;;;;5101201;28;20096;-79
2021/10/20 12:31:38;;;;;;;25.10;4.05;;;19.40;76.90;;;;;;5101274;28;20514;-80
2021/10/20 12:34:04;;;;;;;20.17;3.47;;;19.40;76.90;;;;;;5082688;28;20360;-80
2021/10/20 12:36:32;;;;;;;18.98;4.88;;;19.40;77.40;;;;;;5080757;28;20056;-79
2021/10/20 12:39:00;;;;;;;26.45;4.28;;;19.40;77.20;;;;;;5080288;28;20391;-80
2021/10/20 12:41:37;;;;;;;19.35;3.90;;;19.40;77.40;;;;;;5080724;28;20111;-81